sensor_id;sensor_type;location;lat;lon;timestamp;P1;durP1;ratioP1;P2;durP2;ratioP2
76119;SDS011;64852;48.092;-1.640;2023-08-12T00:19:37;20.63;;;19.33;;
76119;SDS011;64852;48.092;-1.640;2023-08-12T00:22:03;21.60;;;20.20;;
76119;SDS011;64852;48.092;-1.640;2023-08-12T00:24:29;21.33;;;19.90;;
76119;SDS011;64852;48.092;-1.640;2023-08-12T00:26:55;22.80;;;21.20;;
76119;SDS011;64852;48.092;-1.640;2023-08-12T00:29:21;22.70;;;21.13;;
76119;SDS011;64852;48.092;-1.640;2023-08-12T00:31:46;23.20;;;21.70;;
76119;SDS011;64852;48.092;-1.640;2023-08-12T00:34:12;20.97;;;19.47;;
76119;SDS011;64852;48.092;-1.640;2023-08-12T00:36:38;21.37;;;19.87;;
76119;SDS011;64852;48.092;-1.640;2023-08-12T00:41:29;20.77;;;19.48;;
76119;SDS011;64852;48.092;-1.640;2023-08-12T00:43:55;22.10;;;20.70;;
76119;SDS011;64852;48.092;-1.640;2023-08-12T00:46:21;21.50;;;20.10;;
76119;SDS011;64852;48.092;-1.640;2023-08-12T00:48:47;21.63;;;20.23;;
76119;SDS011;64852;48.092;-1.640;2023-08-12T00:51:14;21.58;;;20.17;;
76119;SDS011;64852;48.092;-1.640;2023-08-12T00:53:41;20.83;;;19.48;;
76119;SDS011;64852;48.092;-1.640;2023-08-12T00:58:34;21.17;;;19.80;;
76119;SDS011;64852;48.092;-1.640;2023-08-12T01:01:00;21.52;;;20.13;;
76119;SDS011;64852;48.092;-1.640;2023-08-12T01:03:26;21.80;;;20.40;;
76119;SDS011;64852;48.092;-1.640;2023-08-12T01:05:51;22.15;;;20.75;;
76119;SDS011;64852;48.092;-1.640;2023-08-12T01:08:17;22.13;;;20.73;;
76119;SDS011;64852;48.092;-1.640;2023-08-12T01:10:45;21.73;;;20.33;;
76119;SDS011;64852;48.092;-1.640;2023-08-12T01:13:39;21.67;;;20.27;;
76119;SDS011;64852;48.092;-1.640;2023-08-12T01:16:11;22.27;;;20.88;;
76119;SDS011;64852;48.092;-1.640;2023-08-12T01:21:05;21.38;;;19.98;;
76119;SDS011;64852;48.092;-1.640;2023-08-12T01:23:34;21.50;;;20.10;;
76119;SDS011;64852;48.092;-1.640;2023-08-12T01:25:59;22.58;;;21.08;;
76119;SDS011;64852;48.092;-1.640;2023-08-12T01:28:25;23.70;;;22.20;;
76119;SDS011;64852;48.092;-1.640;2023-08-12T01:33:53;22.10;;;20.60;;
76119;SDS011;64852;48.092;-1.640;2023-08-12T01:36:23;22.13;;;20.63;;
76119;SDS011;64852;48.092;-1.640;2023-08-12T01:38:51;22.60;;;21.10;;
76119;SDS011;64852;48.092;-1.640;2023-08-12T01:41:19;22.80;;;21.10;;
76119;SDS011;64852;48.092;-1.640;2023-08-12T01:43:48;22.33;;;20.83;;
76119;SDS011;64852;48.092;-1.640;2023-08-12T01:46:14;22.35;;;20.85;;
76119;SDS011;64852;48.092;-1.640;2023-08-12T01:48:39;22.00;;;20.50;;
76119;SDS011;64852;48.092;-1.640;2023-08-12T01:51:05;22.23;;;20.73;;
76119;SDS011;64852;48.092;-1.640;2023-08-12T01:53:30;22.13;;;20.63;;
76119;SDS011;64852;48.092;-1.640;2023-08-12T01:55:56;21.83;;;20.33;;
76119;SDS011;64852;48.092;-1.640;2023-08-12T02:00:47;21.52;;;20.10;;
76119;SDS011;64852;48.092;-1.640;2023-08-12T02:03:13;20.90;;;19.50;;
76119;SDS011;64852;48.092;-1.640;2023-08-12T02:05:38;26.23;;;24.43;;
76119;SDS011;64852;48.092;-1.640;2023-08-12T02:08:06;24.88;;;23.27;;
76119;SDS011;64852;48.092;-1.640;2023-08-12T02:10:31;26.48;;;24.77;;
76119;SDS011;64852;48.092;-1.640;2023-08-12T02:12:57;25.20;;;23.53;;
76119;SDS011;64852;48.092;-1.640;2023-08-12T02:15:23;25.37;;;23.67;;
76119;SDS011;64852;48.092;-1.640;2023-08-12T02:17:48;22.50;;;21.00;;
76119;SDS011;64852;48.092;-1.640;2023-08-12T02:20:14;21.97;;;20.47;;
76119;SDS011;64852;48.092;-1.640;2023-08-12T02:22:39;22.13;;;20.63;;
76119;SDS011;64852;48.092;-1.640;2023-08-12T02:25:05;22.07;;;20.57;;
76119;SDS011;64852;48.092;-1.640;2023-08-12T02:27:31;22.08;;;20.58;;
76119;SDS011;64852;48.092;-1.640;2023-08-12T02:29:56;21.87;;;20.37;;
76119;SDS011;64852;48.092;-1.640;2023-08-12T02:32:22;22.77;;;21.27;;
76119;SDS011;64852;48.092;-1.640;2023-08-12T02:34:48;22.40;;;20.67;;
76119;SDS011;64852;48.092;-1.640;2023-08-12T02:37:13;22.53;;;21.03;;
76119;SDS011;64852;48.092;-1.640;2023-08-12T02:39:39;21.87;;;20.37;;
76119;SDS011;64852;48.092;-1.640;2023-08-12T02:42:05;20.87;;;19.47;;
76119;SDS011;64852;48.092;-1.640;2023-08-12T02:44:30;21.87;;;20.37;;
76119;SDS011;64852;48.092;-1.640;2023-08-12T02:46:56;21.53;;;20.10;;
76119;SDS011;64852;48.092;-1.640;2023-08-12T02:49:21;21.53;;;20.13;;
76119;SDS011;64852;48.092;-1.640;2023-08-12T02:51:47;21.97;;;20.47;;
76119;SDS011;64852;48.092;-1.640;2023-08-12T02:54:12;21.90;;;20.40;;
76119;SDS011;64852;48.092;-1.640;2023-08-12T02:56:38;22.77;;;21.17;;
76119;SDS011;64852;48.092;-1.640;2023-08-12T02:59:05;23.27;;;21.67;;
76119;SDS011;64852;48.092;-1.640;2023-08-12T03:01:30;21.80;;;20.30;;
76119;SDS011;64852;48.092;-1.640;2023-08-12T03:03:56;21.93;;;20.43;;
76119;SDS011;64852;48.092;-1.640;2023-08-12T03:06:22;21.57;;;20.07;;
76119;SDS011;64852;48.092;-1.640;2023-08-12T03:08:47;21.93;;;20.50;;
76119;SDS011;64852;48.092;-1.640;2023-08-12T03:11:13;22.63;;;21.13;;
76119;SDS011;64852;48.092;-1.640;2023-08-12T03:13:38;21.77;;;20.27;;
76119;SDS011;64852;48.092;-1.640;2023-08-12T03:16:04;23.17;;;21.23;;
76119;SDS011;64852;48.092;-1.640;2023-08-12T03:18:30;22.23;;;20.73;;
76119;SDS011;64852;48.092;-1.640;2023-08-12T03:20:55;21.60;;;20.10;;
76119;SDS011;64852;48.092;-1.640;2023-08-12T03:23:21;21.53;;;20.13;;
76119;SDS011;64852;48.092;-1.640;2023-08-12T03:25:47;22.23;;;20.73;;
76119;SDS011;64852;48.092;-1.640;2023-08-12T03:28:16;22.83;;;21.33;;
76119;SDS011;64852;48.092;-1.640;2023-08-12T03:30:41;22.57;;;21.07;;
76119;SDS011;64852;48.092;-1.640;2023-08-12T03:33:07;22.60;;;21.00;;
76119;SDS011;64852;48.092;-1.640;2023-08-12T03:35:33;22.07;;;20.57;;
76119;SDS011;64852;48.092;-1.640;2023-08-12T03:37:58;22.02;;;20.52;;
76119;SDS011;64852;48.092;-1.640;2023-08-12T03:40:24;23.10;;;21.50;;
76119;SDS011;64852;48.092;-1.640;2023-08-12T03:42:50;22.30;;;20.80;;
76119;SDS011;64852;48.092;-1.640;2023-08-12T03:45:15;23.37;;;21.67;;
76119;SDS011;64852;48.092;-1.640;2023-08-12T03:47:41;24.77;;;22.97;;
76119;SDS011;64852;48.092;-1.640;2023-08-12T03:50:06;21.73;;;20.27;;
76119;SDS011;64852;48.092;-1.640;2023-08-12T03:52:32;25.30;;;23.60;;
76119;SDS011;64852;48.092;-1.640;2023-08-12T03:54:58;24.87;;;23.23;;
76119;SDS011;64852;48.092;-1.640;2023-08-12T03:57:23;25.77;;;23.97;;
76119;SDS011;64852;48.092;-1.640;2023-08-12T03:59:49;25.30;;;23.60;;
76119;SDS011;64852;48.092;-1.640;2023-08-12T04:02:14;25.63;;;23.67;;
76119;SDS011;64852;48.092;-1.640;2023-08-12T04:04:40;22.00;;;20.50;;
76119;SDS011;64852;48.092;-1.640;2023-08-12T04:07:07;22.08;;;20.58;;
76119;SDS011;64852;48.092;-1.640;2023-08-12T04:09:33;21.83;;;20.33;;
76119;SDS011;64852;48.092;-1.640;2023-08-12T04:11:59;21.77;;;20.27;;
76119;SDS011;64852;48.092;-1.640;2023-08-12T04:14:24;21.97;;;20.47;;
76119;SDS011;64852;48.092;-1.640;2023-08-12T04:16:50;22.08;;;20.52;;
76119;SDS011;64852;48.092;-1.640;2023-08-12T04:19:16;22.50;;;20.90;;
76119;SDS011;64852;48.092;-1.640;2023-08-12T04:21:41;22.50;;;20.90;;
76119;SDS011;64852;48.092;-1.640;2023-08-12T04:24:11;21.90;;;20.40;;
76119;SDS011;64852;48.092;-1.640;2023-08-12T04:26:36;22.60;;;21.10;;
76119;SDS011;64852;48.092;-1.640;2023-08-12T04:29:02;23.20;;;21.50;;
76119;SDS011;64852;48.092;-1.640;2023-08-12T04:31:28;21.50;;;20.00;;
76119;SDS011;64852;48.092;-1.640;2023-08-12T04:33:53;22.33;;;20.83;;
76119;SDS011;64852;48.092;-1.640;2023-08-12T04:36:19;22.70;;;21.10;;
76119;SDS011;64852;48.092;-1.640;2023-08-12T04:38:44;22.60;;;21.10;;
76119;SDS011;64852;48.092;-1.640;2023-08-12T04:41:10;21.87;;;20.37;;
76119;SDS011;64852;48.092;-1.640;2023-08-12T04:43:36;22.95;;;21.45;;
76119;SDS011;64852;48.092;-1.640;2023-08-12T04:46:02;24.90;;;22.70;;
76119;SDS011;64852;48.092;-1.640;2023-08-12T04:48:27;22.60;;;21.10;;
76119;SDS011;64852;48.092;-1.640;2023-08-12T04:50:53;22.23;;;20.73;;
76119;SDS011;64852;48.092;-1.640;2023-08-12T04:53:19;22.38;;;20.88;;
76119;SDS011;64852;48.092;-1.640;2023-08-12T04:55:45;23.08;;;21.48;;
76119;SDS011;64852;48.092;-1.640;2023-08-12T04:58:15;23.23;;;21.63;;
76119;SDS011;64852;48.092;-1.640;2023-08-12T05:00:41;23.93;;;22.23;;
76119;SDS011;64852;48.092;-1.640;2023-08-12T05:03:07;23.90;;;22.20;;
76119;SDS011;64852;48.092;-1.640;2023-08-12T05:05:32;22.00;;;20.50;;
76119;SDS011;64852;48.092;-1.640;2023-08-12T05:07:58;21.70;;;20.10;;
76119;SDS011;64852;48.092;-1.640;2023-08-12T05:10:24;22.10;;;20.60;;
76119;SDS011;64852;48.092;-1.640;2023-08-12T05:12:49;22.10;;;20.67;;
76119;SDS011;64852;48.092;-1.640;2023-08-12T05:15:17;21.77;;;20.27;;
76119;SDS011;64852;48.092;-1.640;2023-08-12T05:17:42;22.33;;;20.83;;
76119;SDS011;64852;48.092;-1.640;2023-08-12T05:20:08;22.10;;;20.60;;
76119;SDS011;64852;48.092;-1.640;2023-08-12T05:22:34;21.65;;;20.15;;
76119;SDS011;64852;48.092;-1.640;2023-08-12T05:24:59;21.50;;;20.10;;
76119;SDS011;64852;48.092;-1.640;2023-08-12T05:27:25;27.70;;;25.50;;
76119;SDS011;64852;48.092;-1.640;2023-08-12T05:29:51;27.40;;;25.33;;
76119;SDS011;64852;48.092;-1.640;2023-08-12T05:32:16;26.80;;;25.10;;
76119;SDS011;64852;48.092;-1.640;2023-08-12T05:34:42;26.37;;;24.47;;
76119;SDS011;64852;48.092;-1.640;2023-08-12T05:37:07;24.63;;;23.03;;
76119;SDS011;64852;48.092;-1.640;2023-08-12T05:39:34;23.38;;;21.88;;
76119;SDS011;64852;48.092;-1.640;2023-08-12T05:41:59;23.27;;;21.77;;
76119;SDS011;64852;48.092;-1.640;2023-08-12T05:44:25;21.97;;;20.57;;
76119;SDS011;64852;48.092;-1.640;2023-08-12T05:46:50;20.77;;;19.47;;
76119;SDS011;64852;48.092;-1.640;2023-08-12T05:49:16;21.53;;;20.13;;
76119;SDS011;64852;48.092;-1.640;2023-08-12T05:51:41;21.33;;;19.93;;
76119;SDS011;64852;48.092;-1.640;2023-08-12T05:54:07;21.17;;;19.77;;
76119;SDS011;64852;48.092;-1.640;2023-08-12T05:56:33;21.97;;;20.47;;
76119;SDS011;64852;48.092;-1.640;2023-08-12T05:58:58;21.60;;;20.20;;
76119;SDS011;64852;48.092;-1.640;2023-08-12T06:01:24;21.50;;;20.10;;
76119;SDS011;64852;48.092;-1.640;2023-08-12T06:03:50;21.20;;;19.80;;
76119;SDS011;64852;48.092;-1.640;2023-08-12T06:08:41;21.92;;;20.40;;
76119;SDS011;64852;48.092;-1.640;2023-08-12T06:11:06;22.27;;;20.80;;
76119;SDS011;64852;48.092;-1.640;2023-08-12T06:13:32;22.33;;;20.83;;
76119;SDS011;64852;48.092;-1.640;2023-08-12T06:15:57;22.43;;;20.93;;
76119;SDS011;64852;48.092;-1.640;2023-08-12T06:18:23;22.07;;;20.67;;
76119;SDS011;64852;48.092;-1.640;2023-08-12T06:25:40;21.27;;;19.88;;
76119;SDS011;64852;48.092;-1.640;2023-08-12T06:28:07;21.73;;;20.33;;
76119;SDS011;64852;48.092;-1.640;2023-08-12T06:30:34;21.45;;;20.05;;
76119;SDS011;64852;48.092;-1.640;2023-08-12T06:32:59;22.87;;;21.23;;
76119;SDS011;64852;48.092;-1.640;2023-08-12T06:35:25;23.23;;;21.50;;
76119;SDS011;64852;48.092;-1.640;2023-08-12T06:37:51;22.10;;;20.60;;
76119;SDS011;64852;48.092;-1.640;2023-08-12T06:40:16;21.50;;;20.10;;
76119;SDS011;64852;48.092;-1.640;2023-08-12T06:42:42;21.63;;;20.23;;
76119;SDS011;64852;48.092;-1.640;2023-08-12T06:45:08;22.00;;;20.60;;
76119;SDS011;64852;48.092;-1.640;2023-08-12T06:47:34;21.58;;;20.17;;
76119;SDS011;64852;48.092;-1.640;2023-08-12T06:49:59;22.23;;;20.73;;
76119;SDS011;64852;48.092;-1.640;2023-08-12T06:52:25;21.23;;;19.87;;
76119;SDS011;64852;48.092;-1.640;2023-08-12T06:54:51;22.13;;;20.73;;
76119;SDS011;64852;48.092;-1.640;2023-08-12T06:57:16;22.60;;;21.02;;
76119;SDS011;64852;48.092;-1.640;2023-08-12T06:59:42;21.67;;;20.27;;
76119;SDS011;64852;48.092;-1.640;2023-08-12T07:02:08;20.87;;;19.57;;
76119;SDS011;64852;48.092;-1.640;2023-08-12T07:04:33;23.60;;;22.10;;
76119;SDS011;64852;48.092;-1.640;2023-08-12T07:06:59;23.60;;;22.13;;
76119;SDS011;64852;48.092;-1.640;2023-08-12T07:09:25;23.40;;;22.00;;
76119;SDS011;64852;48.092;-1.640;2023-08-12T07:11:51;24.10;;;22.60;;
76119;SDS011;64852;48.092;-1.640;2023-08-12T07:14:16;22.53;;;20.80;;
76119;SDS011;64852;48.092;-1.640;2023-08-12T07:16:42;20.40;;;19.10;;
76119;SDS011;64852;48.092;-1.640;2023-08-12T07:19:08;22.63;;;21.00;;
76119;SDS011;64852;48.092;-1.640;2023-08-12T07:21:33;21.40;;;20.00;;
76119;SDS011;64852;48.092;-1.640;2023-08-12T07:23:59;23.10;;;21.33;;
76119;SDS011;64852;48.092;-1.640;2023-08-12T07:26:24;22.67;;;20.83;;
76119;SDS011;64852;48.092;-1.640;2023-08-12T07:28:50;20.53;;;19.20;;
76119;SDS011;64852;48.092;-1.640;2023-08-12T07:31:16;21.40;;;20.00;;
76119;SDS011;64852;48.092;-1.640;2023-08-12T07:36:08;21.80;;;20.40;;
76119;SDS011;64852;48.092;-1.640;2023-08-12T07:38:33;21.00;;;19.60;;
76119;SDS011;64852;48.092;-1.640;2023-08-12T07:40:59;22.13;;;20.73;;
76119;SDS011;64852;48.092;-1.640;2023-08-12T07:43:25;22.98;;;21.48;;
76119;SDS011;64852;48.092;-1.640;2023-08-12T07:45:51;22.77;;;21.17;;
76119;SDS011;64852;48.092;-1.640;2023-08-12T07:50:43;29.50;;;23.27;;
76119;SDS011;64852;48.092;-1.640;2023-08-12T07:53:09;22.53;;;21.13;;
76119;SDS011;64852;48.092;-1.640;2023-08-12T07:55:35;22.57;;;21.17;;
76119;SDS011;64852;48.092;-1.640;2023-08-12T08:00:26;22.58;;;21.17;;
76119;SDS011;64852;48.092;-1.640;2023-08-12T08:02:51;23.40;;;21.60;;
76119;SDS011;64852;48.092;-1.640;2023-08-12T08:05:17;23.30;;;21.80;;
76119;SDS011;64852;48.092;-1.640;2023-08-12T08:07:43;22.60;;;21.13;;
76119;SDS011;64852;48.092;-1.640;2023-08-12T08:10:08;21.43;;;20.13;;
76119;SDS011;64852;48.092;-1.640;2023-08-12T08:12:35;22.08;;;20.63;;
76119;SDS011;64852;48.092;-1.640;2023-08-12T08:15:01;22.50;;;21.10;;
76119;SDS011;64852;48.092;-1.640;2023-08-12T08:17:28;21.60;;;20.20;;
76119;SDS011;64852;48.092;-1.640;2023-08-12T08:19:54;22.27;;;20.88;;
76119;SDS011;64852;48.092;-1.640;2023-08-12T08:22:19;21.63;;;20.30;;
76119;SDS011;64852;48.092;-1.640;2023-08-12T08:24:45;24.27;;;22.67;;
76119;SDS011;64852;48.092;-1.640;2023-08-12T08:27:10;23.23;;;21.83;;
76119;SDS011;64852;48.092;-1.640;2023-08-12T08:29:36;24.47;;;22.83;;
76119;SDS011;64852;48.092;-1.640;2023-08-12T08:32:02;21.90;;;20.53;;
76119;SDS011;64852;48.092;-1.640;2023-08-12T08:34:27;24.30;;;22.80;;
76119;SDS011;64852;48.092;-1.640;2023-08-12T08:36:53;25.00;;;23.50;;
76119;SDS011;64852;48.092;-1.640;2023-08-12T08:39:19;27.80;;;25.15;;
76119;SDS011;64852;48.092;-1.640;2023-08-12T08:41:46;24.58;;;23.08;;
76119;SDS011;64852;48.092;-1.640;2023-08-12T08:44:13;24.05;;;22.65;;
76119;SDS011;64852;48.092;-1.640;2023-08-12T08:46:40;24.30;;;22.90;;
76119;SDS011;64852;48.092;-1.640;2023-08-12T08:51:34;22.27;;;20.27;;
76119;SDS011;64852;48.092;-1.640;2023-08-12T08:54:01;21.25;;;19.95;;
76119;SDS011;64852;48.092;-1.640;2023-08-12T08:56:29;20.80;;;19.50;;
76119;SDS011;64852;48.092;-1.640;2023-08-12T08:58:57;20.45;;;19.25;;
76119;SDS011;64852;48.092;-1.640;2023-08-12T09:01:22;21.43;;;20.03;;
76119;SDS011;64852;48.092;-1.640;2023-08-12T09:03:49;20.60;;;19.40;;
76119;SDS011;64852;48.092;-1.640;2023-08-12T09:06:18;19.83;;;18.73;;
76119;SDS011;64852;48.092;-1.640;2023-08-12T09:08:45;20.90;;;19.70;;
76119;SDS011;64852;48.092;-1.640;2023-08-12T09:13:39;20.35;;;19.20;;
76119;SDS011;64852;48.092;-1.640;2023-08-12T09:16:04;20.50;;;19.30;;
76119;SDS011;64852;48.092;-1.640;2023-08-12T09:18:30;21.92;;;20.52;;
76119;SDS011;64852;48.092;-1.640;2023-08-12T09:20:56;21.92;;;20.63;;
76119;SDS011;64852;48.092;-1.640;2023-08-12T09:23:22;20.60;;;19.40;;
76119;SDS011;64852;48.092;-1.640;2023-08-12T09:28:13;20.80;;;19.60;;
76119;SDS011;64852;48.092;-1.640;2023-08-12T09:30:39;19.63;;;18.52;;
76119;SDS011;64852;48.092;-1.640;2023-08-12T09:33:07;21.27;;;19.95;;
76119;SDS011;64852;48.092;-1.640;2023-08-12T09:40:52;20.33;;;19.23;;
76119;SDS011;64852;48.092;-1.640;2023-08-12T09:43:19;21.88;;;19.77;;
76119;SDS011;64852;48.092;-1.640;2023-08-12T09:45:48;19.58;;;18.48;;
76119;SDS011;64852;48.092;-1.640;2023-08-12T09:48:16;19.40;;;18.30;;
76119;SDS011;64852;48.092;-1.640;2023-08-12T09:50:42;18.77;;;17.67;;
76119;SDS011;64852;48.092;-1.640;2023-08-12T09:53:07;18.17;;;17.07;;
76119;SDS011;64852;48.092;-1.640;2023-08-12T09:58:00;22.10;;;20.80;;
76119;SDS011;64852;48.092;-1.640;2023-08-12T10:00:28;20.27;;;19.15;;
76119;SDS011;64852;48.092;-1.640;2023-08-12T10:02:54;24.42;;;22.77;;
76119;SDS011;64852;48.092;-1.640;2023-08-12T10:05:31;21.27;;;20.07;;
76119;SDS011;64852;48.092;-1.640;2023-08-12T10:07:58;21.60;;;20.30;;
76119;SDS011;64852;48.092;-1.640;2023-08-12T10:10:26;18.80;;;17.80;;
76119;SDS011;64852;48.092;-1.640;2023-08-12T10:12:53;19.08;;;17.98;;
76119;SDS011;64852;48.092;-1.640;2023-08-12T10:15:19;18.67;;;17.58;;
76119;SDS011;64852;48.092;-1.640;2023-08-12T10:17:46;17.35;;;16.45;;
76119;SDS011;64852;48.092;-1.640;2023-08-12T10:20:13;18.50;;;17.40;;
76119;SDS011;64852;48.092;-1.640;2023-08-12T10:22:50;20.85;;;19.65;;
76119;SDS011;64852;48.092;-1.640;2023-08-12T10:25:17;20.77;;;19.58;;
76119;SDS011;64852;48.092;-1.640;2023-08-12T10:27:44;15.63;;;14.82;;
76119;SDS011;64852;48.092;-1.640;2023-08-12T10:30:10;17.85;;;16.75;;
76119;SDS011;64852;48.092;-1.640;2023-08-12T10:32:37;16.25;;;15.35;;
76119;SDS011;64852;48.092;-1.640;2023-08-12T10:35:04;17.25;;;16.35;;
76119;SDS011;64852;48.092;-1.640;2023-08-12T10:37:31;18.35;;;17.23;;
76119;SDS011;64852;48.092;-1.640;2023-08-12T10:39:59;16.33;;;15.25;;
76119;SDS011;64852;48.092;-1.640;2023-08-12T10:42:42;12.27;;;11.68;;
76119;SDS011;64852;48.092;-1.640;2023-08-12T10:45:09;12.73;;;12.02;;
76119;SDS011;64852;48.092;-1.640;2023-08-12T10:47:40;11.90;;;11.30;;
76119;SDS011;64852;48.092;-1.640;2023-08-12T10:50:15;10.80;;;10.23;;
76119;SDS011;64852;48.092;-1.640;2023-08-12T10:52:43;10.10;;;9.60;;
76119;SDS011;64852;48.092;-1.640;2023-08-12T10:55:26;12.18;;;11.57;;
76119;SDS011;64852;48.092;-1.640;2023-08-12T10:57:54;12.60;;;12.00;;
76119;SDS011;64852;48.092;-1.640;2023-08-12T11:00:22;10.57;;;10.05;;
76119;SDS011;64852;48.092;-1.640;2023-08-12T11:02:53;10.95;;;10.35;;
76119;SDS011;64852;48.092;-1.640;2023-08-12T11:05:21;9.23;;;8.73;;
76119;SDS011;64852;48.092;-1.640;2023-08-12T11:10:24;9.50;;;8.88;;
76119;SDS011;64852;48.092;-1.640;2023-08-12T11:15:17;8.40;;;8.00;;
76119;SDS011;64852;48.092;-1.640;2023-08-12T11:17:46;9.15;;;8.55;;
76119;SDS011;64852;48.092;-1.640;2023-08-12T11:20:12;8.50;;;8.00;;
76119;SDS011;64852;48.092;-1.640;2023-08-12T11:22:42;9.60;;;8.65;;
76119;SDS011;64852;48.092;-1.640;2023-08-12T11:25:12;8.88;;;8.38;;
76119;SDS011;64852;48.092;-1.640;2023-08-12T11:27:39;7.25;;;6.85;;
76119;SDS011;64852;48.092;-1.640;2023-08-12T11:30:06;6.93;;;6.43;;
76119;SDS011;64852;48.092;-1.640;2023-08-12T11:32:34;6.22;;;5.93;;
76119;SDS011;64852;48.092;-1.640;2023-08-12T11:35:00;7.50;;;7.10;;
76119;SDS011;64852;48.092;-1.640;2023-08-12T11:37:25;5.82;;;5.53;;
76119;SDS011;64852;48.092;-1.640;2023-08-12T11:39:54;5.35;;;5.05;;
76119;SDS011;64852;48.092;-1.640;2023-08-12T11:42:20;6.40;;;5.90;;
76119;SDS011;64852;48.092;-1.640;2023-08-12T11:44:45;7.90;;;7.17;;
76119;SDS011;64852;48.092;-1.640;2023-08-12T11:47:11;5.10;;;4.77;;
76119;SDS011;64852;48.092;-1.640;2023-08-12T11:49:36;4.27;;;4.07;;
76119;SDS011;64852;48.092;-1.640;2023-08-12T11:52:02;4.90;;;4.10;;
76119;SDS011;64852;48.092;-1.640;2023-08-12T11:54:28;5.45;;;4.93;;
76119;SDS011;64852;48.092;-1.640;2023-08-12T11:56:54;4.88;;;4.57;;
76119;SDS011;64852;48.092;-1.640;2023-08-12T11:59:22;4.75;;;4.45;;
76119;SDS011;64852;48.092;-1.640;2023-08-12T12:01:51;3.95;;;3.75;;
76119;SDS011;64852;48.092;-1.640;2023-08-12T12:04:20;4.32;;;4.03;;
76119;SDS011;64852;48.092;-1.640;2023-08-12T12:09:13;10.55;;;3.55;;
76119;SDS011;64852;48.092;-1.640;2023-08-12T12:11:41;3.50;;;3.30;;
76119;SDS011;64852;48.092;-1.640;2023-08-12T12:14:07;3.60;;;3.40;;
76119;SDS011;64852;48.092;-1.640;2023-08-12T12:16:41;4.10;;;3.80;;
76119;SDS011;64852;48.092;-1.640;2023-08-12T12:19:21;3.10;;;2.78;;
76119;SDS011;64852;48.092;-1.640;2023-08-12T12:21:48;2.90;;;2.80;;
76119;SDS011;64852;48.092;-1.640;2023-08-12T12:24:18;2.78;;;2.67;;
76119;SDS011;64852;48.092;-1.640;2023-08-12T12:26:44;3.00;;;2.90;;
76119;SDS011;64852;48.092;-1.640;2023-08-12T12:29:12;3.20;;;3.00;;
76119;SDS011;64852;48.092;-1.640;2023-08-12T12:31:39;4.50;;;4.25;;
76119;SDS011;64852;48.092;-1.640;2023-08-12T12:34:05;3.30;;;3.15;;
76119;SDS011;64852;48.092;-1.640;2023-08-12T12:36:35;8.52;;;3.90;;
76119;SDS011;64852;48.092;-1.640;2023-08-12T12:39:05;4.03;;;3.60;;
76119;SDS011;64852;48.092;-1.640;2023-08-12T12:41:31;2.95;;;2.85;;
76119;SDS011;64852;48.092;-1.640;2023-08-12T12:43:57;1.95;;;1.85;;
76119;SDS011;64852;48.092;-1.640;2023-08-12T12:46:25;2.00;;;1.90;;
76119;SDS011;64852;48.092;-1.640;2023-08-12T12:48:50;1.60;;;1.60;;
76119;SDS011;64852;48.092;-1.640;2023-08-12T12:51:16;1.17;;;1.15;;
76119;SDS011;64852;48.092;-1.640;2023-08-12T12:53:42;1.10;;;1.10;;
76119;SDS011;64852;48.092;-1.640;2023-08-12T12:56:07;1.00;;;1.00;;
76119;SDS011;64852;48.092;-1.640;2023-08-12T12:58:33;1.52;;;1.42;;
76119;SDS011;64852;48.092;-1.640;2023-08-12T13:03:25;1.40;;;1.25;;
76119;SDS011;64852;48.092;-1.640;2023-08-12T13:05:51;1.20;;;1.10;;
76119;SDS011;64852;48.092;-1.640;2023-08-12T13:08:17;1.33;;;1.08;;
76119;SDS011;64852;48.092;-1.640;2023-08-12T13:10:43;0.90;;;0.90;;
76119;SDS011;64852;48.092;-1.640;2023-08-12T13:13:09;1.27;;;1.27;;
76119;SDS011;64852;48.092;-1.640;2023-08-12T13:15:35;0.73;;;0.73;;
76119;SDS011;64852;48.092;-1.640;2023-08-12T13:18:01;0.80;;;0.80;;
76119;SDS011;64852;48.092;-1.640;2023-08-12T13:20:27;0.68;;;0.68;;
76119;SDS011;64852;48.092;-1.640;2023-08-12T13:22:53;0.60;;;0.60;;
76119;SDS011;64852;48.092;-1.640;2023-08-12T13:25:19;0.80;;;0.80;;
76119;SDS011;64852;48.092;-1.640;2023-08-12T13:27:44;4.37;;;0.67;;
76119;SDS011;64852;48.092;-1.640;2023-08-12T13:30:10;0.55;;;0.55;;
76119;SDS011;64852;48.092;-1.640;2023-08-12T13:35:02;0.60;;;0.60;;
76119;SDS011;64852;48.092;-1.640;2023-08-12T13:39:54;2.15;;;0.60;;
76119;SDS011;64852;48.092;-1.640;2023-08-12T13:42:20;0.73;;;0.73;;
76119;SDS011;64852;48.092;-1.640;2023-08-12T13:44:45;18.95;;;1.90;;
76119;SDS011;64852;48.092;-1.640;2023-08-12T13:47:11;0.77;;;0.77;;
76119;SDS011;64852;48.092;-1.640;2023-08-12T13:49:37;0.50;;;0.50;;
76119;SDS011;64852;48.092;-1.640;2023-08-12T13:52:02;2.58;;;1.35;;
76119;SDS011;64852;48.092;-1.640;2023-08-12T13:54:28;0.55;;;0.55;;
76119;SDS011;64852;48.092;-1.640;2023-08-12T13:56:54;1.25;;;0.70;;
76119;SDS011;64852;48.092;-1.640;2023-08-12T13:59:19;0.60;;;0.60;;
76119;SDS011;64852;48.092;-1.640;2023-08-12T14:01:45;1.92;;;0.70;;
76119;SDS011;64852;48.092;-1.640;2023-08-12T14:04:11;1.60;;;1.20;;
76119;SDS011;64852;48.092;-1.640;2023-08-12T14:06:36;1.23;;;1.13;;
76119;SDS011;64852;48.092;-1.640;2023-08-12T14:09:02;0.43;;;0.40;;
76119;SDS011;64852;48.092;-1.640;2023-08-12T14:11:28;0.80;;;0.63;;
76119;SDS011;64852;48.092;-1.640;2023-08-12T14:13:53;0.73;;;0.73;;
76119;SDS011;64852;48.092;-1.640;2023-08-12T14:16:22;0.40;;;0.40;;
76119;SDS011;64852;48.092;-1.640;2023-08-12T14:18:47;6.93;;;1.20;;
76119;SDS011;64852;48.092;-1.640;2023-08-12T14:21:13;1.20;;;0.70;;
76119;SDS011;64852;48.092;-1.640;2023-08-12T14:23:39;0.57;;;0.57;;
76119;SDS011;64852;48.092;-1.640;2023-08-12T14:30:55;0.45;;;0.45;;
76119;SDS011;64852;48.092;-1.640;2023-08-12T14:33:21;0.53;;;0.53;;
76119;SDS011;64852;48.092;-1.640;2023-08-12T14:35:49;0.40;;;0.40;;
76119;SDS011;64852;48.092;-1.640;2023-08-12T14:38:16;2.17;;;0.93;;
76119;SDS011;64852;48.092;-1.640;2023-08-12T14:40:42;0.75;;;0.60;;
76119;SDS011;64852;48.092;-1.640;2023-08-12T15:00:09;0.63;;;0.63;;
76119;SDS011;64852;48.092;-1.640;2023-08-12T15:02:35;1.30;;;1.20;;
76119;SDS011;64852;48.092;-1.640;2023-08-12T15:05:01;1.00;;;0.80;;
76119;SDS011;64852;48.092;-1.640;2023-08-12T15:07:27;0.90;;;0.90;;
76119;SDS011;64852;48.092;-1.640;2023-08-12T15:09:53;1.00;;;0.82;;
76119;SDS011;64852;48.092;-1.640;2023-08-12T15:14:48;1.10;;;0.77;;
76119;SDS011;64852;48.092;-1.640;2023-08-12T15:51:14;1.50;;;0.45;;
76119;SDS011;64852;48.092;-1.640;2023-08-12T15:53:40;4.23;;;0.90;;
76119;SDS011;64852;48.092;-1.640;2023-08-12T15:56:05;1.90;;;0.87;;
76119;SDS011;64852;48.092;-1.640;2023-08-12T15:58:31;2.67;;;1.17;;
76119;SDS011;64852;48.092;-1.640;2023-08-12T16:00:56;0.50;;;0.50;;
76119;SDS011;64852;48.092;-1.640;2023-08-12T16:03:22;0.57;;;0.57;;
76119;SDS011;64852;48.092;-1.640;2023-08-12T16:05:48;0.90;;;0.90;;
76119;SDS011;64852;48.092;-1.640;2023-08-12T16:08:14;1.00;;;0.90;;
76119;SDS011;64852;48.092;-1.640;2023-08-12T16:10:40;2.30;;;1.00;;
76119;SDS011;64852;48.092;-1.640;2023-08-12T16:13:06;4.70;;;1.30;;
76119;SDS011;64852;48.092;-1.640;2023-08-12T16:15:32;0.75;;;0.65;;
76119;SDS011;64852;48.092;-1.640;2023-08-12T16:17:57;0.47;;;0.47;;
76119;SDS011;64852;48.092;-1.640;2023-08-12T16:20:23;0.90;;;0.73;;
76119;SDS011;64852;48.092;-1.640;2023-08-12T16:22:49;2.90;;;1.05;;
76119;SDS011;64852;48.092;-1.640;2023-08-12T16:25:14;0.60;;;0.60;;